Current Weather

Rochelle Muni Arpt-Koritz Fie

Rochelle Muni Arpt-Koritz Fie, Illinois (KRPJ)

Report from: Monday, May 23, 2022 2:35 AM CDT
Current time: Monday, May 23, 2022 2:55 AM CDT

Nearby weather
Weather history
Weather forecast

Temperature7.0°C (44.6°F)
Dew point2.7°C (36.9°F)
Winds Calm
Visibility10 mi. (16.1 km)
Clouds Sky clear
Altimeter30.36 in.Hg (1028 mB)
Relative humidity74 %
Density altitude-1,355 ft. (-413 m)
Remarks Fully automated report
Automated weather observing station with precipitation discriminator
Lightning detection system not operating
Flight conditions Visual Meteorological Conditions
Raw dataKRPJ 230735Z AUTO 00000KT 10SM CLR 07/03 A3036 RMK AO2 T00700027 TSNO
An error has occurred. This application may no longer respond until reloaded. Reload 🗙